createdAt,value
2023-04-14T00:01:39.133Z,77.65
2023-04-14T00:04:06.474Z,77.59
2023-04-14T00:06:33.405Z,77.60
2023-04-14T00:09:00.323Z,77.51
2023-04-14T00:11:27.454Z,77.55
2023-04-14T00:13:56.083Z,77.67
2023-04-14T00:16:22.912Z,77.90
2023-04-14T00:18:49.673Z,77.67
2023-04-14T00:21:16.427Z,77.58
2023-04-14T00:23:43.211Z,77.52
2023-04-14T00:26:10.431Z,77.45
2023-04-14T00:28:39.947Z,77.49
2023-04-14T00:31:07.225Z,77.39
2023-04-14T00:33:33.885Z,77.60
2023-04-14T00:36:01.721Z,77.61
2023-04-14T00:38:29.313Z,77.83
2023-04-14T00:40:59.308Z,77.86
2023-04-14T00:43:26.127Z,78.10
2023-04-14T00:45:53.030Z,77.86
2023-04-14T00:48:20.439Z,77.83
2023-04-14T00:50:47.892Z,77.87
2023-04-14T00:53:14.924Z,78.00
2023-04-14T00:55:41.965Z,77.92
2023-04-14T00:58:09.107Z,78.00
2023-04-14T01:00:36.351Z,77.92
2023-04-14T01:03:03.658Z,77.91
2023-04-14T01:05:30.732Z,77.78
2023-04-14T01:07:59.989Z,77.73
2023-04-14T01:10:31.196Z,77.92
2023-04-14T01:13:08.955Z,78.05
2023-04-14T01:15:47.984Z,78.07
2023-04-14T01:18:36.665Z,78.08
2023-04-14T01:21:11.461Z,78.21
2023-04-14T01:23:51.735Z,78.16
2023-04-14T01:26:19.653Z,78.07
2023-04-14T01:29:03.437Z,78.24
2023-04-14T01:31:48.747Z,78.23
2023-04-14T01:34:38.759Z,78.24
2023-04-14T01:37:08.981Z,78.16
2023-04-14T01:39:39.210Z,77.99
2023-04-14T01:42:09.458Z,78.00
2023-04-14T01:44:37.653Z,78.09
2023-04-14T01:47:08.495Z,77.98
2023-04-14T01:49:38.728Z,77.73
2023-04-14T01:52:08.865Z,77.48
2023-04-14T01:54:37.669Z,77.71
2023-04-14T01:57:05.207Z,77.70
2023-04-14T01:59:34.019Z,78.00
2023-04-14T02:02:02.987Z,77.99
2023-04-14T02:04:31.291Z,78.31
2023-04-14T02:06:59.955Z,78.41
2023-04-14T02:09:27.192Z,78.36
2023-04-14T02:11:55.064Z,78.41
2023-04-14T02:14:22.787Z,78.37
2023-04-14T02:16:51.837Z,78.42
2023-04-14T02:19:21.188Z,78.49
2023-04-14T02:21:49.869Z,78.32
2023-04-14T02:24:17.081Z,77.95
2023-04-14T02:26:51.411Z,78.36
2023-04-14T02:29:20.419Z,78.47
2023-04-14T02:34:29.029Z,78.53
2023-04-14T02:36:57.704Z,78.65
2023-04-14T02:39:37.418Z,78.14
2023-04-14T02:42:11.140Z,78.44
2023-04-14T02:44:44.185Z,78.24
2023-04-14T02:47:12.001Z,78.12
2023-04-14T02:49:44.722Z,78.29
2023-04-14T02:52:14.581Z,78.30
2023-04-14T02:54:43.070Z,78.18
2023-04-14T02:57:11.085Z,77.94
2023-04-14T02:59:42.587Z,77.96
2023-04-14T03:02:11.450Z,78.29
2023-04-14T03:04:42.128Z,77.98
2023-04-14T03:07:17.843Z,78.00
2023-04-14T03:09:45.499Z,78.17
2023-04-14T03:12:14.061Z,78.16
2023-04-14T03:14:42.479Z,78.24
2023-04-14T03:17:09.799Z,78.38
2023-04-14T03:19:39.912Z,78.28
2023-04-14T03:22:09.108Z,78.00
2023-04-14T03:24:36.817Z,78.24
2023-04-14T03:27:07.158Z,78.06
2023-04-14T03:29:41.203Z,78.46
2023-04-14T03:32:09.460Z,78.22
2023-04-14T03:34:41.597Z,78.21
2023-04-14T03:37:09.356Z,78.34
2023-04-14T03:39:39.159Z,78.20
2023-04-14T03:42:08.505Z,78.28
2023-04-14T03:44:36.796Z,78.30
2023-04-14T03:47:08.196Z,78.16
2023-04-14T03:49:38.101Z,77.90
2023-04-14T03:52:07.977Z,77.59
2023-04-14T03:54:36.806Z,77.89
2023-04-14T03:57:06.399Z,77.83
2023-04-14T03:59:35.488Z,77.66
2023-04-14T04:02:03.267Z,77.90
2023-04-14T04:04:31.362Z,77.94
2023-04-14T04:06:59.148Z,77.99
2023-04-14T04:09:27.456Z,77.88
2023-04-14T04:11:58.184Z,78.11
2023-04-14T04:14:25.641Z,77.91
2023-04-14T04:16:55.224Z,78.01
2023-04-14T04:19:23.394Z,78.06
2023-04-14T04:21:53.199Z,77.83
2023-04-14T04:24:22.611Z,77.99
2023-04-14T04:26:49.967Z,78.30
2023-04-14T04:29:16.734Z,78.13
2023-04-14T04:31:43.656Z,77.84
2023-04-14T04:34:11.272Z,77.79
2023-04-14T04:36:40.408Z,77.81
2023-04-14T04:39:07.343Z,77.89
2023-04-14T04:41:38.608Z,78.09
2023-04-14T04:44:05.971Z,78.13
2023-04-14T04:46:46.942Z,77.63
2023-04-14T04:49:15.484Z,78.15
2023-04-14T04:51:43.520Z,78.17
2023-04-14T04:54:10.268Z,78.28
2023-04-14T04:56:37.151Z,78.00
2023-04-14T04:59:04.260Z,78.08
2023-04-14T05:01:31.328Z,77.91
2023-04-14T05:03:58.210Z,78.09
2023-04-14T05:06:24.986Z,77.51
2023-04-14T05:08:52.638Z,77.65
2023-04-14T05:11:19.377Z,77.75
2023-04-14T05:13:46.291Z,77.69
2023-04-14T05:16:17.430Z,77.95
2023-04-14T05:18:44.522Z,77.88
2023-04-14T05:21:15.136Z,78.08
2023-04-14T05:23:43.834Z,78.11
2023-04-14T05:28:42.778Z,78.42
2023-04-14T05:31:09.551Z,78.32
2023-04-14T05:33:36.451Z,78.06
2023-04-14T05:36:03.304Z,78.28
2023-04-14T05:38:30.065Z,78.52
2023-04-14T05:40:56.796Z,78.50
2023-04-14T05:43:23.531Z,78.61
2023-04-14T05:45:50.266Z,78.49
2023-04-14T05:48:17.792Z,78.56
2023-04-14T05:50:44.796Z,78.78
2023-04-14T05:53:12.198Z,78.69
2023-04-14T05:55:41.738Z,78.94
2023-04-14T05:58:08.460Z,78.91
2023-04-14T06:00:35.145Z,78.88
2023-04-14T06:03:02.074Z,78.89
2023-04-14T06:05:29.005Z,78.98
2023-04-14T06:07:56.028Z,78.85
2023-04-14T06:10:23.251Z,79.10
2023-04-14T06:12:50.019Z,79.12
2023-04-14T06:15:16.745Z,79.04
2023-04-14T06:17:44.182Z,78.98
2023-04-14T06:20:11.413Z,79.09
2023-04-14T06:22:38.216Z,79.15
2023-04-14T06:25:05.278Z,79.14
2023-04-14T06:27:32.055Z,79.39
2023-04-14T06:30:00.265Z,79.40
2023-04-14T06:32:27.084Z,79.39
2023-04-14T06:34:53.881Z,79.41
2023-04-14T06:37:23.342Z,78.53
2023-04-14T06:39:50.031Z,79.14
2023-04-14T06:42:16.802Z,78.80
2023-04-14T06:44:43.646Z,78.27
2023-04-14T06:47:10.435Z,78.07
2023-04-14T06:49:37.342Z,77.44
2023-04-14T06:52:05.853Z,78.73
2023-04-14T06:54:32.598Z,78.70
2023-04-14T06:57:00.092Z,79.06
2023-04-14T06:59:29.422Z,79.35
2023-04-14T07:01:56.780Z,80.26
2023-04-14T07:04:23.681Z,81.30
2023-04-14T07:06:50.536Z,80.77
2023-04-14T07:09:17.257Z,78.76
2023-04-14T07:11:45.667Z,78.69
2023-04-14T07:14:12.563Z,78.89
2023-04-14T07:16:39.335Z,78.40
2023-04-14T07:19:06.110Z,77.99
2023-04-14T07:21:32.849Z,76.52
2023-04-14T07:23:59.701Z,75.76
2023-04-14T07:26:26.814Z,75.46
2023-04-14T07:28:53.547Z,76.08
2023-04-14T07:31:23.748Z,76.20
2023-04-14T07:33:50.561Z,75.55
2023-04-14T07:36:17.326Z,73.38
2023-04-14T07:38:44.126Z,73.92
2023-04-14T07:41:10.833Z,72.67
2023-04-14T07:43:37.649Z,72.87
2023-04-14T07:46:05.743Z,73.42
2023-04-14T07:48:37.322Z,73.35
2023-04-14T07:51:07.224Z,72.41
2023-04-14T07:53:34.268Z,72.89
2023-04-14T07:56:00.975Z,71.86
2023-04-14T07:58:30.020Z,70.55
2023-04-14T08:00:57.004Z,70.36
2023-04-14T08:03:24.308Z,68.75
2023-04-14T08:05:51.745Z,68.17
2023-04-14T08:08:18.448Z,69.41
2023-04-14T08:10:45.165Z,69.83
2023-04-14T08:13:11.900Z,70.15
2023-04-14T08:15:39.049Z,68.41
2023-04-14T08:18:06.159Z,67.46
2023-04-14T08:20:33.208Z,67.48
2023-04-14T08:23:00.008Z,67.38
2023-04-14T08:25:26.815Z,66.53
2023-04-14T08:27:53.555Z,67.30
2023-04-14T08:30:20.373Z,67.71
2023-04-14T08:32:47.118Z,66.80
2023-04-14T08:35:35.986Z,64.32
2023-04-14T08:38:02.484Z,64.22
2023-04-14T08:40:36.503Z,65.28
2023-04-14T08:43:03.392Z,65.00
2023-04-14T08:45:31.539Z,65.99
2023-04-14T08:47:59.830Z,66.35
2023-04-14T08:50:28.871Z,66.51
2023-04-14T08:52:57.287Z,65.68
2023-04-14T08:55:26.243Z,66.81
2023-04-14T08:57:54.284Z,65.50
2023-04-14T09:00:23.686Z,64.96
2023-04-14T09:02:51.062Z,65.50
2023-04-14T09:05:20.931Z,66.20
2023-04-14T09:07:47.665Z,64.18
2023-04-14T09:10:14.605Z,64.05
2023-04-14T09:12:42.134Z,63.82
2023-04-14T09:15:09.716Z,63.22
2023-04-14T09:17:36.931Z,63.21
2023-04-14T09:20:37.370Z,62.40
2023-04-14T09:22:53.107Z,61.87
2023-04-14T09:25:21.319Z,63.19
2023-04-14T09:27:49.545Z,61.11
2023-04-14T09:30:17.951Z,59.95
2023-04-14T09:32:45.420Z,61.20
2023-04-14T09:35:14.974Z,61.56
2023-04-14T09:37:45.436Z,62.25
2023-04-14T09:40:32.582Z,61.53
2023-04-14T09:42:59.594Z,61.59
2023-04-14T09:45:45.095Z,64.01
2023-04-14T09:48:22.447Z,62.28
2023-04-14T09:51:10.139Z,59.56
2023-04-14T09:53:38.042Z,61.04
2023-04-14T09:56:06.578Z,60.91
2023-04-14T09:58:37.618Z,62.72
2023-04-14T10:01:06.042Z,61.21
2023-04-14T10:03:38.304Z,61.87
2023-04-14T10:06:14.401Z,58.62
2023-04-14T10:08:43.274Z,58.72
2023-04-14T10:11:21.277Z,62.28
2023-04-14T10:13:50.562Z,56.67
2023-04-14T10:16:17.775Z,54.76
2023-04-14T10:18:44.720Z,55.66
2023-04-14T10:21:11.848Z,58.11
2023-04-14T10:23:39.908Z,59.11
2023-04-14T10:26:07.836Z,56.45
2023-04-14T10:28:36.270Z,59.46
2023-04-14T10:31:05.185Z,58.26
2023-04-14T10:33:32.040Z,56.59
2023-04-14T10:36:01.449Z,56.31
2023-04-14T10:38:39.850Z,56.03
2023-04-14T10:41:07.979Z,55.72
2023-04-14T10:43:38.827Z,56.55
2023-04-14T10:46:10.172Z,57.61
2023-04-14T10:48:41.733Z,54.74
2023-04-14T10:51:10.828Z,52.66
2023-04-14T10:53:50.284Z,53.23
2023-04-14T10:56:21.666Z,54.12
2023-04-14T10:58:56.476Z,54.26
2023-04-14T11:01:31.539Z,54.32
2023-04-14T11:04:13.149Z,56.83
2023-04-14T11:06:46.908Z,59.19
2023-04-14T11:09:33.636Z,53.68
2023-04-14T11:12:28.132Z,52.75
2023-04-14T11:14:57.056Z,47.66
2023-04-14T11:17:24.090Z,44.35
2023-04-14T11:19:55.397Z,47.41
2023-04-14T11:22:41.729Z,44.65
2023-04-14T11:25:11.956Z,45.88
2023-04-14T11:27:39.655Z,48.15
2023-04-14T11:30:07.791Z,48.92
2023-04-14T11:32:52.230Z,48.04
2023-04-14T11:35:20.054Z,47.66
2023-04-14T11:37:47.319Z,47.93
2023-04-14T11:40:15.731Z,49.69
2023-04-14T11:42:49.221Z,50.73
2023-04-14T11:45:15.929Z,50.23
2023-04-14T11:47:58.665Z,49.81
2023-04-14T11:50:26.509Z,43.85
2023-04-14T11:52:55.530Z,42.85
2023-04-14T11:55:23.526Z,40.92
2023-04-14T11:57:50.283Z,42.49
2023-04-14T12:00:17.536Z,46.26
2023-04-14T12:02:45.508Z,48.22
2023-04-14T12:05:14.214Z,47.65
2023-04-14T12:07:46.228Z,49.77
2023-04-14T12:10:13.540Z,49.01
2023-04-14T12:12:40.240Z,48.55
2023-04-14T12:15:07.976Z,51.34
2023-04-14T12:17:34.740Z,48.51
2023-04-14T12:20:01.436Z,44.52
2023-04-14T12:22:29.918Z,44.80
2023-04-14T12:24:57.147Z,42.53
2023-04-14T12:27:24.959Z,42.38
2023-04-14T12:29:52.501Z,42.16
2023-04-14T12:32:19.334Z,38.24
2023-04-14T12:34:58.781Z,40.62
2023-04-14T12:37:29.024Z,42.83
2023-04-14T12:39:58.721Z,42.12
2023-04-14T12:42:26.841Z,42.12
2023-04-14T12:45:00.906Z,39.21
2023-04-14T12:47:34.538Z,40.62
2023-04-14T12:50:22.140Z,41.55
2023-04-14T12:52:48.868Z,40.29
2023-04-14T12:55:29.853Z,41.32
2023-04-14T12:58:00.380Z,40.92
2023-04-14T13:00:28.424Z,42.62
2023-04-14T13:02:56.227Z,40.19
2023-04-14T13:05:23.396Z,35.64
2023-04-14T13:07:50.590Z,37.31
2023-04-14T13:10:17.387Z,36.51
2023-04-14T13:12:44.099Z,36.44
2023-04-14T13:15:28.000Z,35.90
2023-04-14T13:17:58.628Z,34.25
2023-04-14T13:20:25.642Z,35.68
2023-04-14T13:22:52.596Z,35.96
2023-04-14T13:25:19.354Z,36.30
2023-04-14T13:27:48.907Z,36.59
2023-04-14T13:30:15.715Z,35.75
2023-04-14T13:32:45.404Z,37.83
2023-04-14T13:35:12.620Z,33.01
2023-04-14T13:37:39.464Z,35.06
2023-04-14T13:40:07.038Z,37.80
2023-04-14T13:42:33.753Z,38.86
2023-04-14T13:45:00.492Z,38.26
2023-04-14T13:47:28.410Z,39.99
2023-04-14T13:49:55.139Z,37.98
2023-04-14T13:52:21.820Z,35.81
2023-04-14T13:54:48.651Z,37.88
2023-04-14T13:57:15.709Z,36.38
2023-04-14T13:59:42.607Z,38.15
2023-04-14T14:02:09.361Z,37.83
2023-04-14T14:04:37.086Z,37.48
2023-04-14T14:07:04.029Z,40.90
2023-04-14T14:09:30.890Z,37.81
2023-04-14T14:11:57.698Z,36.03
2023-04-14T14:14:24.387Z,37.07
2023-04-14T14:16:51.177Z,38.77
2023-04-14T14:19:18.306Z,36.79
2023-04-14T14:21:45.019Z,37.81
2023-04-14T14:24:12.625Z,36.93
2023-04-14T14:26:39.375Z,38.30
2023-04-14T14:29:06.141Z,35.66
2023-04-14T14:31:33.090Z,34.86
2023-04-14T14:34:00.204Z,36.72
2023-04-14T14:36:27.761Z,36.49
2023-04-14T14:38:54.433Z,35.26
2023-04-14T14:41:21.162Z,34.56
2023-04-14T14:43:49.848Z,37.26
2023-04-14T14:46:17.049Z,35.43
2023-04-14T14:48:43.876Z,34.63
2023-04-14T14:51:10.779Z,33.81
2023-04-14T14:53:37.477Z,34.36
2023-04-14T14:56:04.741Z,35.67
2023-04-14T14:58:31.544Z,35.01
2023-04-14T15:00:58.278Z,35.28
2023-04-14T15:03:25.158Z,36.98
2023-04-14T15:05:53.053Z,36.65
2023-04-14T15:08:20.164Z,37.18
2023-04-14T15:10:46.923Z,37.33
2023-04-14T15:13:13.714Z,37.73
2023-04-14T15:15:40.431Z,36.57
2023-04-14T15:18:07.463Z,39.09
2023-04-14T15:20:34.168Z,34.30
2023-04-14T15:23:00.884Z,33.65
2023-04-14T15:25:27.608Z,34.75
2023-04-14T15:27:55.483Z,35.38
2023-04-14T15:30:24.012Z,35.26
2023-04-14T15:32:51.293Z,34.26
2023-04-14T15:35:18.173Z,36.06
2023-04-14T15:37:44.867Z,35.81
2023-04-14T15:40:11.684Z,35.16
2023-04-14T15:42:38.454Z,37.68
2023-04-14T15:45:05.522Z,36.71
2023-04-14T15:47:32.278Z,36.39
2023-04-14T15:50:09.333Z,36.48
2023-04-14T15:52:41.038Z,38.15
2023-04-14T15:55:09.037Z,37.38
2023-04-14T15:57:36.391Z,36.63
2023-04-14T16:00:07.393Z,35.26
2023-04-14T16:02:42.088Z,35.51
2023-04-14T16:05:09.142Z,35.28
2023-04-14T16:07:36.081Z,34.81
2023-04-14T16:10:04.412Z,37.20
2023-04-14T16:12:33.647Z,37.24
2023-04-14T16:15:00.337Z,36.13
2023-04-14T16:17:27.106Z,37.08
2023-04-14T16:19:53.918Z,36.71
2023-04-14T16:22:20.635Z,37.67
2023-04-14T16:24:47.399Z,35.85
2023-04-14T16:27:14.191Z,38.15
2023-04-14T16:29:41.775Z,36.75
2023-04-14T16:32:08.577Z,36.89
2023-04-14T16:34:35.616Z,35.29
2023-04-14T16:37:02.299Z,36.79
2023-04-14T16:39:30.457Z,35.06
2023-04-14T16:41:57.805Z,36.80
2023-04-14T16:44:24.647Z,35.43
2023-04-14T16:46:51.745Z,36.25
2023-04-14T16:49:18.521Z,35.42
2023-04-14T16:51:46.266Z,36.16
2023-04-14T16:54:12.970Z,33.83
2023-04-14T16:56:39.688Z,37.10
2023-04-14T16:59:07.331Z,37.04
2023-04-14T17:01:34.107Z,36.20
2023-04-14T17:04:01.123Z,36.60
2023-04-14T17:06:28.146Z,37.15
2023-04-14T17:08:54.867Z,36.70
2023-04-14T17:11:21.726Z,37.22
2023-04-14T17:13:48.773Z,37.31
2023-04-14T17:16:15.839Z,38.21
2023-04-14T17:18:42.989Z,37.73
2023-04-14T17:21:09.707Z,38.80
2023-04-14T17:23:37.561Z,39.44
2023-04-14T17:26:04.583Z,39.21
2023-04-14T17:28:32.966Z,37.84
2023-04-14T17:31:00.112Z,39.54
2023-04-14T17:33:27.582Z,41.98
2023-04-14T17:35:55.064Z,41.26
2023-04-14T17:38:21.823Z,44.65
2023-04-14T17:40:48.868Z,43.51
2023-04-14T17:43:15.981Z,46.44
2023-04-14T17:45:44.221Z,47.55
2023-04-14T17:48:11.158Z,47.85
2023-04-14T17:50:38.353Z,47.01
2023-04-14T17:53:05.117Z,45.46
2023-04-14T17:55:31.954Z,43.90
2023-04-14T17:57:58.857Z,47.76
2023-04-14T18:00:27.646Z,47.64
2023-04-14T18:02:54.425Z,49.03
2023-04-14T18:05:21.201Z,50.48
2023-04-14T18:07:47.950Z,50.27
2023-04-14T18:10:14.680Z,50.52
2023-04-14T18:12:41.377Z,53.87
2023-04-14T18:15:08.589Z,54.02
2023-04-14T18:17:36.643Z,54.55
2023-04-14T18:20:04.550Z,53.46
2023-04-14T18:22:31.726Z,53.97
2023-04-14T18:24:58.422Z,55.00
2023-04-14T18:29:54.866Z,56.08
2023-04-14T18:32:22.453Z,56.36
2023-04-14T18:34:49.397Z,54.86
2023-04-14T18:37:16.100Z,56.29
2023-04-14T18:39:42.949Z,55.53
2023-04-14T18:42:10.346Z,57.16
2023-04-14T18:44:37.063Z,57.72
2023-04-14T18:47:04.005Z,58.10
2023-04-14T18:49:30.774Z,58.07
2023-04-14T18:51:58.037Z,57.18
2023-04-14T18:54:24.951Z,57.31
2023-04-14T18:56:51.921Z,58.39
2023-04-14T18:59:18.853Z,59.20
2023-04-14T19:01:46.398Z,59.27
2023-04-14T19:04:13.421Z,58.61
2023-04-14T19:06:40.626Z,58.71
2023-04-14T19:09:07.424Z,59.19
2023-04-14T19:11:36.155Z,59.62
2023-04-14T19:14:04.790Z,59.87
2023-04-14T19:16:31.596Z,60.17
2023-04-14T19:18:59.380Z,59.57
2023-04-14T19:21:26.339Z,60.23
2023-04-14T19:23:54.683Z,60.40
2023-04-14T19:26:21.510Z,60.05
2023-04-14T19:28:48.308Z,60.31
2023-04-14T19:31:15.966Z,59.99
2023-04-14T19:33:42.671Z,60.05
2023-04-14T19:36:14.314Z,60.36
2023-04-14T19:38:41.507Z,61.05
2023-04-14T19:41:11.513Z,61.15
2023-04-14T19:43:38.435Z,60.96
2023-04-14T19:46:05.464Z,61.50
2023-04-14T19:48:35.320Z,61.45
2023-04-14T19:51:02.528Z,61.78
2023-04-14T19:53:29.249Z,62.21
2023-04-14T19:55:58.130Z,62.46
2023-04-14T19:58:26.973Z,62.80
2023-04-14T20:00:56.023Z,62.48
2023-04-14T20:03:24.843Z,62.60
2023-04-14T20:05:55.847Z,62.75
2023-04-14T20:08:26.532Z,62.94
2023-04-14T20:10:54.383Z,62.87
2023-04-14T20:13:22.674Z,62.68
2023-04-14T20:15:50.807Z,62.95
2023-04-14T20:18:18.168Z,63.02
2023-04-14T20:20:48.998Z,63.17
2023-04-14T20:23:16.195Z,63.41
2023-04-14T20:25:44.204Z,63.80
2023-04-14T20:28:11.069Z,62.77
2023-04-14T20:30:38.053Z,63.13
2023-04-14T20:33:06.413Z,63.10
2023-04-14T20:35:37.492Z,63.12
2023-04-14T20:38:04.774Z,63.33
2023-04-14T20:40:31.475Z,63.59
2023-04-14T20:42:58.592Z,63.49
2023-04-14T20:45:25.534Z,63.88
2023-04-14T20:47:52.519Z,63.52
2023-04-14T20:50:19.418Z,63.35
2023-04-14T20:52:46.741Z,63.64
2023-04-14T20:55:13.874Z,63.72
2023-04-14T20:57:42.095Z,63.70
2023-04-14T21:00:12.611Z,63.55
2023-04-14T21:02:39.612Z,64.07
2023-04-14T21:05:06.809Z,63.84
2023-04-14T21:07:35.590Z,63.85
2023-04-14T21:10:04.271Z,63.88
2023-04-14T21:12:36.018Z,64.29
2023-04-14T21:15:48.438Z,64.20
2023-04-14T21:17:52.113Z,64.53
2023-04-14T21:20:19.127Z,64.26
2023-04-14T21:22:46.098Z,64.26
2023-04-14T21:25:12.893Z,64.03
2023-04-14T21:27:39.778Z,64.21
2023-04-14T21:30:11.944Z,64.21
2023-04-14T21:32:39.589Z,64.66
2023-04-14T21:35:07.601Z,64.46
2023-04-14T21:37:34.451Z,64.29
2023-04-14T21:40:04.353Z,64.58
2023-04-14T21:42:31.626Z,65.23
2023-04-14T21:44:58.446Z,65.17
2023-04-14T21:47:25.258Z,64.78
2023-04-14T21:49:52.256Z,64.46
2023-04-14T21:52:19.460Z,64.03
2023-04-14T21:54:47.664Z,64.30
2023-04-14T21:57:14.472Z,65.30
2023-04-14T21:59:41.508Z,65.38
2023-04-14T22:02:08.284Z,66.11
2023-04-14T22:04:37.044Z,66.04
2023-04-14T22:07:05.433Z,65.54
2023-04-14T22:09:33.459Z,66.41
2023-04-14T22:12:00.645Z,66.11
2023-04-14T22:14:27.919Z,65.74
2023-04-14T22:16:55.255Z,66.70
2023-04-14T22:19:22.075Z,67.35
2023-04-14T22:21:48.955Z,66.58
2023-04-14T22:24:15.713Z,66.44
2023-04-14T22:26:42.519Z,66.24
2023-04-14T22:29:11.526Z,65.87
2023-04-14T22:31:38.483Z,65.41
2023-04-14T22:34:05.448Z,65.55
2023-04-14T22:36:32.411Z,66.00
2023-04-14T22:38:59.636Z,66.28
2023-04-14T22:41:26.509Z,65.97
2023-04-14T22:43:53.281Z,65.67
2023-04-14T22:46:20.023Z,66.28
2023-04-14T22:48:46.805Z,66.36
2023-04-14T22:51:13.564Z,66.86
2023-04-14T22:53:41.695Z,66.85
2023-04-14T22:56:08.808Z,67.24
2023-04-14T22:58:39.355Z,67.38
2023-04-14T23:01:21.387Z,67.69
2023-04-14T23:03:51.282Z,68.16
2023-04-14T23:06:21.530Z,68.21
2023-04-14T23:08:48.276Z,67.69
2023-04-14T23:11:15.405Z,68.00
2023-04-14T23:13:42.218Z,67.99
2023-04-14T23:16:09.327Z,68.17
2023-04-14T23:18:36.354Z,67.88
2023-04-14T23:21:03.740Z,67.83
2023-04-14T23:23:30.462Z,68.01
2023-04-14T23:25:57.792Z,68.33
2023-04-14T23:28:24.949Z,68.14
2023-04-14T23:30:52.078Z,68.27
2023-04-14T23:33:18.756Z,68.59
2023-04-14T23:35:45.510Z,68.62
2023-04-14T23:38:12.199Z,68.84
2023-04-14T23:40:38.904Z,68.50
2023-04-14T23:43:06.201Z,68.28
2023-04-14T23:45:37.300Z,68.36
2023-04-14T23:48:05.199Z,68.12
2023-04-14T23:50:59.533Z,68.31
2023-04-14T23:53:19.711Z,68.82
2023-04-14T23:55:46.886Z,69.01
2023-04-14T23:58:14.110Z,69.48
